Huvudsida
METAR-TAF:

METAR-TAF

Flygplatser :

Dala Airport

Borlänge, Sverige

latitud: 60-26N, longitud: 015-31E, höjd: 145 m

Aktuellt väderrapport

Denna rapport gjordes för 36 minuter sedan, klockan 03:20 UTC
Vind 13 kt från väst/sydväst
Temperatur 4°C
Fuktighet 65%
Tryck 1009 hPa
Sikt 10 km eller mer

METAR: ESSD 160320Z AUTO 25013KT 9999 NCD 04/M02 Q1009

Tid: 04:56 (03:56 UTC)

Väderprognos

Denna rapport gjordes för 16 timmar och 26 minuter sedan, klockan 11:30 UTC
Prognos gäller från 15 kl. 12 UTC till 15 kl. 16 UTC
Vind 10 kt från väst
Sikt 10 km eller mer
Inga moln under 1 500 m eller inga cumulonimbus

TAF: ESSD 151130Z 1512/1516 26010KT CAVOK

Aktuella väderrapporter och prognoser från 4000 flygplatser (METAR- och TAF-rapporter).

De tillgängliga stationerna syns som gula och röda prickar på kartan.

För musen över prickarna för att se namnen på stationerna.

Klicka sedan för att få väderrapporter och prognoser.

För att ändra kartan: Klicka på de gröna knapparna med ett svart kors på för att zooma in; den gröna knappen med ett streck på för att zooma ut; eller på de gröna pilarna för angränsande kartor.


METAR-TAF: